sensor_id;sensor_type;location;lat;lon;timestamp;P1;durP1;ratioP1;P2;durP2;ratioP2
75935;SDS011;64614;32.062;34.834;2022-11-09T00:00:04;4.88;;;2.13;;
75935;SDS011;64614;32.062;34.834;2022-11-09T00:02:30;4.65;;;1.98;;
75935;SDS011;64614;32.062;34.834;2022-11-09T00:04:56;3.30;;;1.88;;
75935;SDS011;64614;32.062;34.834;2022-11-09T00:07:21;3.60;;;1.90;;
75935;SDS011;64614;32.062;34.834;2022-11-09T00:09:47;6.75;;;2.08;;
75935;SDS011;64614;32.062;34.834;2022-11-09T00:12:12;4.80;;;1.90;;
75935;SDS011;64614;32.062;34.834;2022-11-09T00:14:39;5.68;;;1.75;;
75935;SDS011;64614;32.062;34.834;2022-11-09T00:17:06;4.32;;;1.90;;
75935;SDS011;64614;32.062;34.834;2022-11-09T00:19:32;4.22;;;1.83;;
75935;SDS011;64614;32.062;34.834;2022-11-09T00:21:58;4.15;;;1.63;;
75935;SDS011;64614;32.062;34.834;2022-11-09T00:24:26;6.05;;;2.00;;
75935;SDS011;64614;32.062;34.834;2022-11-09T00:26:51;4.43;;;1.67;;
75935;SDS011;64614;32.062;34.834;2022-11-09T00:29:17;4.68;;;1.65;;
75935;SDS011;64614;32.062;34.834;2022-11-09T00:31:42;3.90;;;1.80;;
75935;SDS011;64614;32.062;34.834;2022-11-09T00:34:08;4.03;;;1.80;;
75935;SDS011;64614;32.062;34.834;2022-11-09T00:36:34;3.33;;;1.58;;
75935;SDS011;64614;32.062;34.834;2022-11-09T00:38:59;5.13;;;1.80;;
75935;SDS011;64614;32.062;34.834;2022-11-09T00:41:25;3.78;;;1.65;;
75935;SDS011;64614;32.062;34.834;2022-11-09T00:43:51;3.78;;;1.70;;
75935;SDS011;64614;32.062;34.834;2022-11-09T00:46:18;4.20;;;1.73;;
75935;SDS011;64614;32.062;34.834;2022-11-09T00:48:44;6.30;;;1.90;;
75935;SDS011;64614;32.062;34.834;2022-11-09T00:51:10;5.75;;;1.50;;
75935;SDS011;64614;32.062;34.834;2022-11-09T00:53:37;3.97;;;1.67;;
75935;SDS011;64614;32.062;34.834;2022-11-09T00:56:06;3.13;;;1.40;;
75935;SDS011;64614;32.062;34.834;2022-11-09T00:58:37;4.35;;;1.50;;
75935;SDS011;64614;32.062;34.834;2022-11-09T01:01:07;6.15;;;1.77;;
75935;SDS011;64614;32.062;34.834;2022-11-09T01:03:38;4.55;;;1.73;;
75935;SDS011;64614;32.062;34.834;2022-11-09T01:06:05;3.47;;;1.60;;
75935;SDS011;64614;32.062;34.834;2022-11-09T01:08:31;3.10;;;1.55;;
75935;SDS011;64614;32.062;34.834;2022-11-09T01:11:02;5.75;;;1.60;;
75935;SDS011;64614;32.062;34.834;2022-11-09T01:13:32;5.03;;;1.92;;
75935;SDS011;64614;32.062;34.834;2022-11-09T01:15:59;4.68;;;1.63;;
75935;SDS011;64614;32.062;34.834;2022-11-09T01:18:24;3.58;;;1.50;;
75935;SDS011;64614;32.062;34.834;2022-11-09T01:20:50;3.03;;;1.40;;
75935;SDS011;64614;32.062;34.834;2022-11-09T01:23:16;3.03;;;1.52;;
75935;SDS011;64614;32.062;34.834;2022-11-09T01:25:43;4.60;;;1.60;;
75935;SDS011;64614;32.062;34.834;2022-11-09T01:28:09;3.22;;;1.50;;
75935;SDS011;64614;32.062;34.834;2022-11-09T01:30:36;6.53;;;1.85;;
75935;SDS011;64614;32.062;34.834;2022-11-09T01:33:04;2.65;;;1.50;;
75935;SDS011;64614;32.062;34.834;2022-11-09T01:35:34;3.35;;;1.30;;
75935;SDS011;64614;32.062;34.834;2022-11-09T01:38:01;3.15;;;1.38;;
75935;SDS011;64614;32.062;34.834;2022-11-09T01:40:28;4.18;;;1.48;;
75935;SDS011;64614;32.062;34.834;2022-11-09T01:42:56;2.83;;;1.50;;
75935;SDS011;64614;32.062;34.834;2022-11-09T01:47:53;3.45;;;1.40;;
75935;SDS011;64614;32.062;34.834;2022-11-09T01:50:51;2.85;;;1.15;;
75935;SDS011;64614;32.062;34.834;2022-11-09T01:53:26;3.15;;;1.27;;
75935;SDS011;64614;32.062;34.834;2022-11-09T01:55:57;2.03;;;1.05;;
75935;SDS011;64614;32.062;34.834;2022-11-09T01:58:28;2.45;;;1.35;;
75935;SDS011;64614;32.062;34.834;2022-11-09T02:01:01;2.30;;;1.40;;
75935;SDS011;64614;32.062;34.834;2022-11-09T02:03:34;3.90;;;1.50;;
75935;SDS011;64614;32.062;34.834;2022-11-09T02:06:07;4.13;;;1.63;;
75935;SDS011;64614;32.062;34.834;2022-11-09T02:08:35;3.63;;;1.50;;
75935;SDS011;64614;32.062;34.834;2022-11-09T02:13:41;3.63;;;1.55;;
75935;SDS011;64614;32.062;34.834;2022-11-09T02:16:11;3.83;;;1.58;;
75935;SDS011;64614;32.062;34.834;2022-11-09T02:18:39;4.55;;;1.70;;
75935;SDS011;64614;32.062;34.834;2022-11-09T02:21:12;3.95;;;1.50;;
75935;SDS011;64614;32.062;34.834;2022-11-09T02:23:38;5.88;;;2.10;;
75935;SDS011;64614;32.062;34.834;2022-11-09T02:26:05;3.65;;;1.70;;
75935;SDS011;64614;32.062;34.834;2022-11-09T02:28:35;5.22;;;1.52;;
75935;SDS011;64614;32.062;34.834;2022-11-09T02:31:03;4.10;;;1.60;;
75935;SDS011;64614;32.062;34.834;2022-11-09T02:33:38;4.70;;;1.35;;
75935;SDS011;64614;32.062;34.834;2022-11-09T02:36:08;3.38;;;1.65;;
75935;SDS011;64614;32.062;34.834;2022-11-09T02:38:34;3.58;;;1.30;;
75935;SDS011;64614;32.062;34.834;2022-11-09T02:40:59;4.25;;;1.45;;
75935;SDS011;64614;32.062;34.834;2022-11-09T02:43:25;4.30;;;1.60;;
75935;SDS011;64614;32.062;34.834;2022-11-09T02:45:51;3.55;;;1.40;;
75935;SDS011;64614;32.062;34.834;2022-11-09T02:48:16;5.57;;;1.80;;
75935;SDS011;64614;32.062;34.834;2022-11-09T02:50:42;4.38;;;2.00;;
75935;SDS011;64614;32.062;34.834;2022-11-09T02:53:08;3.15;;;1.60;;
75935;SDS011;64614;32.062;34.834;2022-11-09T02:55:33;3.63;;;1.50;;
75935;SDS011;64614;32.062;34.834;2022-11-09T02:57:59;3.00;;;1.58;;
75935;SDS011;64614;32.062;34.834;2022-11-09T03:00:25;3.83;;;1.50;;
75935;SDS011;64614;32.062;34.834;2022-11-09T03:02:51;3.33;;;1.52;;
75935;SDS011;64614;32.062;34.834;2022-11-09T03:05:17;3.13;;;1.60;;
75935;SDS011;64614;32.062;34.834;2022-11-09T03:07:42;2.65;;;1.42;;
75935;SDS011;64614;32.062;34.834;2022-11-09T03:10:08;3.83;;;1.52;;
75935;SDS011;64614;32.062;34.834;2022-11-09T03:12:35;2.95;;;1.50;;
75935;SDS011;64614;32.062;34.834;2022-11-09T03:15:02;4.85;;;1.73;;
75935;SDS011;64614;32.062;34.834;2022-11-09T03:17:30;5.03;;;1.40;;
75935;SDS011;64614;32.062;34.834;2022-11-09T03:19:56;2.63;;;1.42;;
75935;SDS011;64614;32.062;34.834;2022-11-09T03:22:22;2.95;;;1.33;;
75935;SDS011;64614;32.062;34.834;2022-11-09T03:24:48;3.80;;;1.50;;
75935;SDS011;64614;32.062;34.834;2022-11-09T03:27:14;5.03;;;1.70;;
75935;SDS011;64614;32.062;34.834;2022-11-09T03:29:39;4.88;;;1.50;;
75935;SDS011;64614;32.062;34.834;2022-11-09T03:32:05;5.90;;;1.50;;
75935;SDS011;64614;32.062;34.834;2022-11-09T03:34:31;10.57;;;1.80;;
75935;SDS011;64614;32.062;34.834;2022-11-09T03:36:57;3.28;;;1.33;;
75935;SDS011;64614;32.062;34.834;2022-11-09T03:39:23;6.30;;;1.63;;
75935;SDS011;64614;32.062;34.834;2022-11-09T03:41:49;3.92;;;1.60;;
75935;SDS011;64614;32.062;34.834;2022-11-09T03:44:14;11.90;;;2.47;;
75935;SDS011;64614;32.062;34.834;2022-11-09T03:46:40;7.00;;;2.50;;
75935;SDS011;64614;32.062;34.834;2022-11-09T03:49:06;7.72;;;2.03;;
75935;SDS011;64614;32.062;34.834;2022-11-09T03:51:31;6.07;;;2.30;;
75935;SDS011;64614;32.062;34.834;2022-11-09T03:53:57;4.68;;;2.13;;
75935;SDS011;64614;32.062;34.834;2022-11-09T03:56:23;5.22;;;2.30;;
75935;SDS011;64614;32.062;34.834;2022-11-09T03:58:52;6.53;;;2.28;;
75935;SDS011;64614;32.062;34.834;2022-11-09T04:01:33;5.82;;;2.38;;
75935;SDS011;64614;32.062;34.834;2022-11-09T04:04:08;10.73;;;2.40;;
75935;SDS011;64614;32.062;34.834;2022-11-09T04:06:33;5.32;;;2.15;;
75935;SDS011;64614;32.062;34.834;2022-11-09T04:08:59;7.28;;;2.30;;
75935;SDS011;64614;32.062;34.834;2022-11-09T04:11:25;7.47;;;2.25;;
75935;SDS011;64614;32.062;34.834;2022-11-09T04:13:51;6.32;;;2.13;;
75935;SDS011;64614;32.062;34.834;2022-11-09T04:16:17;5.60;;;2.25;;
75935;SDS011;64614;32.062;34.834;2022-11-09T04:18:42;7.88;;;2.50;;
75935;SDS011;64614;32.062;34.834;2022-11-09T04:21:08;8.85;;;2.60;;
75935;SDS011;64614;32.062;34.834;2022-11-09T04:23:34;12.48;;;3.35;;
75935;SDS011;64614;32.062;34.834;2022-11-09T04:25:59;10.23;;;2.65;;
75935;SDS011;64614;32.062;34.834;2022-11-09T04:28:25;10.27;;;3.10;;
75935;SDS011;64614;32.062;34.834;2022-11-09T04:30:50;8.98;;;2.95;;
75935;SDS011;64614;32.062;34.834;2022-11-09T04:33:16;12.43;;;3.50;;
75935;SDS011;64614;32.062;34.834;2022-11-09T04:35:42;10.23;;;2.90;;
75935;SDS011;64614;32.062;34.834;2022-11-09T04:38:09;7.80;;;3.17;;
75935;SDS011;64614;32.062;34.834;2022-11-09T04:40:36;10.27;;;3.13;;
75935;SDS011;64614;32.062;34.834;2022-11-09T04:43:04;8.18;;;2.92;;
75935;SDS011;64614;32.062;34.834;2022-11-09T04:45:31;8.40;;;2.70;;
75935;SDS011;64614;32.062;34.834;2022-11-09T04:47:59;7.90;;;2.75;;
75935;SDS011;64614;32.062;34.834;2022-11-09T04:50:26;8.15;;;2.60;;
75935;SDS011;64614;32.062;34.834;2022-11-09T04:52:52;6.70;;;2.70;;
75935;SDS011;64614;32.062;34.834;2022-11-09T04:55:18;8.48;;;3.00;;
75935;SDS011;64614;32.062;34.834;2022-11-09T05:10:42;13.55;;;3.38;;
75935;SDS011;64614;32.062;34.834;2022-11-09T05:13:10;7.38;;;2.30;;
75935;SDS011;64614;32.062;34.834;2022-11-09T05:15:39;7.82;;;2.70;;
75935;SDS011;64614;32.062;34.834;2022-11-09T05:18:05;5.97;;;2.67;;
75935;SDS011;64614;32.062;34.834;2022-11-09T05:20:32;10.30;;;2.58;;
75935;SDS011;64614;32.062;34.834;2022-11-09T05:25:59;11.75;;;2.83;;
75935;SDS011;64614;32.062;34.834;2022-11-09T05:28:25;15.88;;;6.03;;
75935;SDS011;64614;32.062;34.834;2022-11-09T05:30:51;12.68;;;3.92;;
75935;SDS011;64614;32.062;34.834;2022-11-09T05:33:38;8.30;;;3.63;;
75935;SDS011;64614;32.062;34.834;2022-11-09T05:36:03;8.02;;;3.10;;
75935;SDS011;64614;32.062;34.834;2022-11-09T05:38:29;7.88;;;3.00;;
75935;SDS011;64614;32.062;34.834;2022-11-09T05:40:55;7.35;;;2.80;;
75935;SDS011;64614;32.062;34.834;2022-11-09T05:43:20;6.45;;;2.70;;
75935;SDS011;64614;32.062;34.834;2022-11-09T05:45:46;5.40;;;2.67;;
75935;SDS011;64614;32.062;34.834;2022-11-09T05:48:13;6.85;;;2.80;;
75935;SDS011;64614;32.062;34.834;2022-11-09T05:50:40;7.93;;;2.72;;
75935;SDS011;64614;32.062;34.834;2022-11-09T05:53:06;7.00;;;2.90;;
75935;SDS011;64614;32.062;34.834;2022-11-09T05:55:33;6.03;;;2.58;;
75935;SDS011;64614;32.062;34.834;2022-11-09T05:58:08;5.80;;;2.65;;
75935;SDS011;64614;32.062;34.834;2022-11-09T06:00:34;6.90;;;2.50;;
75935;SDS011;64614;32.062;34.834;2022-11-09T06:03:04;7.80;;;2.60;;
75935;SDS011;64614;32.062;34.834;2022-11-09T06:05:35;5.63;;;2.25;;
75935;SDS011;64614;32.062;34.834;2022-11-09T06:08:17;12.30;;;2.90;;
75935;SDS011;64614;32.062;34.834;2022-11-09T06:10:43;6.75;;;2.20;;
75935;SDS011;64614;32.062;34.834;2022-11-09T06:16:01;13.07;;;3.22;;
75935;SDS011;64614;32.062;34.834;2022-11-09T06:18:59;11.23;;;3.70;;
75935;SDS011;64614;32.062;34.834;2022-11-09T06:21:25;9.30;;;3.40;;
75935;SDS011;64614;32.062;34.834;2022-11-09T06:23:51;14.50;;;4.90;;
75935;SDS011;64614;32.062;34.834;2022-11-09T06:26:19;17.85;;;6.03;;
75935;SDS011;64614;32.062;34.834;2022-11-09T06:28:45;19.55;;;6.38;;
75935;SDS011;64614;32.062;34.834;2022-11-09T06:31:12;9.45;;;3.40;;
75935;SDS011;64614;32.062;34.834;2022-11-09T06:33:38;7.72;;;2.55;;
75935;SDS011;64614;32.062;34.834;2022-11-09T06:36:04;13.10;;;2.75;;
75935;SDS011;64614;32.062;34.834;2022-11-09T06:41:09;15.20;;;3.30;;
75935;SDS011;64614;32.062;34.834;2022-11-09T06:43:35;8.98;;;2.60;;
75935;SDS011;64614;32.062;34.834;2022-11-09T06:46:01;4.80;;;2.30;;
75935;SDS011;64614;32.062;34.834;2022-11-09T06:56:09;6.93;;;2.40;;
75935;SDS011;64614;32.062;34.834;2022-11-09T07:01:10;6.75;;;2.70;;
75935;SDS011;64614;32.062;34.834;2022-11-09T07:03:37;9.65;;;2.67;;
75935;SDS011;64614;32.062;34.834;2022-11-09T07:06:04;9.15;;;2.42;;
75935;SDS011;64614;32.062;34.834;2022-11-09T07:08:31;7.78;;;2.70;;
75935;SDS011;64614;32.062;34.834;2022-11-09T07:11:07;8.30;;;2.58;;
75935;SDS011;64614;32.062;34.834;2022-11-09T07:13:36;5.43;;;2.35;;
75935;SDS011;64614;32.062;34.834;2022-11-09T07:16:02;7.82;;;2.70;;
75935;SDS011;64614;32.062;34.834;2022-11-09T07:18:28;5.57;;;2.65;;
75935;SDS011;64614;32.062;34.834;2022-11-09T07:20:54;8.70;;;2.85;;
75935;SDS011;64614;32.062;34.834;2022-11-09T07:23:19;8.55;;;2.83;;
75935;SDS011;64614;32.062;34.834;2022-11-09T07:25:45;7.97;;;2.75;;
75935;SDS011;64614;32.062;34.834;2022-11-09T07:28:11;7.38;;;2.50;;
75935;SDS011;64614;32.062;34.834;2022-11-09T07:30:38;7.00;;;2.63;;
75935;SDS011;64614;32.062;34.834;2022-11-09T07:33:14;5.45;;;2.05;;
75935;SDS011;64614;32.062;34.834;2022-11-09T07:35:42;6.50;;;2.10;;
75935;SDS011;64614;32.062;34.834;2022-11-09T07:38:08;6.93;;;2.10;;
75935;SDS011;64614;32.062;34.834;2022-11-09T07:40:34;6.22;;;2.40;;
75935;SDS011;64614;32.062;34.834;2022-11-09T07:43:00;8.38;;;2.65;;
75935;SDS011;64614;32.062;34.834;2022-11-09T07:45:28;7.22;;;2.30;;
75935;SDS011;64614;32.062;34.834;2022-11-09T07:48:15;8.25;;;2.55;;
75935;SDS011;64614;32.062;34.834;2022-11-09T07:50:40;6.70;;;2.90;;
75935;SDS011;64614;32.062;34.834;2022-11-09T07:55:56;7.40;;;2.55;;
75935;SDS011;64614;32.062;34.834;2022-11-09T07:58:31;10.98;;;3.42;;
75935;SDS011;64614;32.062;34.834;2022-11-09T08:00:58;7.63;;;2.97;;
75935;SDS011;64614;32.062;34.834;2022-11-09T08:03:24;10.10;;;3.42;;
75935;SDS011;64614;32.062;34.834;2022-11-09T08:05:50;14.52;;;3.05;;
75935;SDS011;64614;32.062;34.834;2022-11-09T08:08:16;9.50;;;2.92;;
75935;SDS011;64614;32.062;34.834;2022-11-09T08:10:42;8.23;;;3.53;;
75935;SDS011;64614;32.062;34.834;2022-11-09T08:13:10;9.23;;;3.15;;
75935;SDS011;64614;32.062;34.834;2022-11-09T08:15:37;10.82;;;3.67;;
75935;SDS011;64614;32.062;34.834;2022-11-09T08:18:05;10.73;;;3.60;;
75935;SDS011;64614;32.062;34.834;2022-11-09T08:20:34;7.57;;;3.80;;
75935;SDS011;64614;32.062;34.834;2022-11-09T08:22:59;8.77;;;3.42;;
75935;SDS011;64614;32.062;34.834;2022-11-09T08:25:25;6.80;;;3.25;;
75935;SDS011;64614;32.062;34.834;2022-11-09T08:27:51;9.00;;;3.15;;
75935;SDS011;64614;32.062;34.834;2022-11-09T08:30:21;9.43;;;2.90;;
75935;SDS011;64614;32.062;34.834;2022-11-09T08:32:49;11.75;;;3.17;;
75935;SDS011;64614;32.062;34.834;2022-11-09T08:35:15;11.70;;;3.00;;
75935;SDS011;64614;32.062;34.834;2022-11-09T08:37:43;6.45;;;2.80;;
75935;SDS011;64614;32.062;34.834;2022-11-09T08:40:11;7.72;;;2.58;;
75935;SDS011;64614;32.062;34.834;2022-11-09T08:42:37;6.97;;;2.50;;
75935;SDS011;64614;32.062;34.834;2022-11-09T08:45:03;7.57;;;2.75;;
75935;SDS011;64614;32.062;34.834;2022-11-09T08:47:29;6.80;;;3.00;;
75935;SDS011;64614;32.062;34.834;2022-11-09T08:49:56;8.75;;;3.00;;
75935;SDS011;64614;32.062;34.834;2022-11-09T08:52:22;9.02;;;3.13;;
75935;SDS011;64614;32.062;34.834;2022-11-09T08:54:47;5.78;;;2.55;;
75935;SDS011;64614;32.062;34.834;2022-11-09T08:57:13;7.63;;;3.45;;
75935;SDS011;64614;32.062;34.834;2022-11-09T08:59:41;7.63;;;3.30;;
75935;SDS011;64614;32.062;34.834;2022-11-09T09:02:08;8.15;;;3.22;;
75935;SDS011;64614;32.062;34.834;2022-11-09T09:04:34;8.00;;;3.10;;
75935;SDS011;64614;32.062;34.834;2022-11-09T09:06:59;8.90;;;3.63;;
75935;SDS011;64614;32.062;34.834;2022-11-09T09:09:25;9.38;;;3.00;;
75935;SDS011;64614;32.062;34.834;2022-11-09T09:11:54;7.68;;;2.97;;
75935;SDS011;64614;32.062;34.834;2022-11-09T09:14:21;7.38;;;3.25;;
75935;SDS011;64614;32.062;34.834;2022-11-09T09:16:47;10.65;;;3.53;;
75935;SDS011;64614;32.062;34.834;2022-11-09T09:19:12;7.15;;;3.08;;
75935;SDS011;64614;32.062;34.834;2022-11-09T09:21:38;7.82;;;2.65;;
75935;SDS011;64614;32.062;34.834;2022-11-09T09:24:04;7.50;;;2.60;;
75935;SDS011;64614;32.062;34.834;2022-11-09T09:26:30;6.25;;;2.30;;
75935;SDS011;64614;32.062;34.834;2022-11-09T09:28:56;8.38;;;2.50;;
75935;SDS011;64614;32.062;34.834;2022-11-09T09:31:21;7.05;;;2.63;;
75935;SDS011;64614;32.062;34.834;2022-11-09T09:33:47;6.35;;;2.30;;
75935;SDS011;64614;32.062;34.834;2022-11-09T09:36:16;7.50;;;2.13;;
75935;SDS011;64614;32.062;34.834;2022-11-09T09:38:43;5.35;;;2.08;;
75935;SDS011;64614;32.062;34.834;2022-11-09T09:41:16;8.43;;;2.42;;
75935;SDS011;64614;32.062;34.834;2022-11-09T09:43:47;7.82;;;2.60;;
75935;SDS011;64614;32.062;34.834;2022-11-09T09:46:18;4.90;;;2.10;;
75935;SDS011;64614;32.062;34.834;2022-11-09T09:48:55;10.68;;;2.40;;
75935;SDS011;64614;32.062;34.834;2022-11-09T09:54:06;7.72;;;2.60;;
75935;SDS011;64614;32.062;34.834;2022-11-09T09:56:38;5.85;;;2.25;;
75935;SDS011;64614;32.062;34.834;2022-11-09T10:01:51;8.60;;;2.28;;
75935;SDS011;64614;32.062;34.834;2022-11-09T10:04:18;6.97;;;2.00;;
75935;SDS011;64614;32.062;34.834;2022-11-09T10:07:04;11.77;;;2.22;;
75935;SDS011;64614;32.062;34.834;2022-11-09T10:18:27;4.93;;;1.75;;
75935;SDS011;64614;32.062;34.834;2022-11-09T10:29:21;7.40;;;1.90;;
75935;SDS011;64614;32.062;34.834;2022-11-09T10:32:12;5.32;;;1.80;;
75935;SDS011;64614;32.062;34.834;2022-11-09T10:34:49;8.77;;;2.00;;
75935;SDS011;64614;32.062;34.834;2022-11-09T10:40:03;6.63;;;2.20;;
75935;SDS011;64614;32.062;34.834;2022-11-09T10:42:44;6.68;;;2.20;;
75935;SDS011;64614;32.062;34.834;2022-11-09T10:47:55;7.90;;;2.17;;
75935;SDS011;64614;32.062;34.834;2022-11-09T10:50:25;7.68;;;1.98;;
75935;SDS011;64614;32.062;34.834;2022-11-09T10:52:52;8.25;;;2.20;;
75935;SDS011;64614;32.062;34.834;2022-11-09T10:55:48;7.40;;;2.05;;
75935;SDS011;64614;32.062;34.834;2022-11-09T11:00:58;7.10;;;2.20;;
75935;SDS011;64614;32.062;34.834;2022-11-09T11:03:24;8.20;;;2.20;;
75935;SDS011;64614;32.062;34.834;2022-11-09T11:05:58;8.52;;;2.13;;
75935;SDS011;64614;32.062;34.834;2022-11-09T11:08:30;9.07;;;2.05;;
75935;SDS011;64614;32.062;34.834;2022-11-09T11:13:32;5.35;;;2.05;;
75935;SDS011;64614;32.062;34.834;2022-11-09T11:15:58;5.63;;;2.15;;
75935;SDS011;64614;32.062;34.834;2022-11-09T11:21:14;17.27;;;2.70;;
75935;SDS011;64614;32.062;34.834;2022-11-09T11:27:25;8.75;;;2.17;;
75935;SDS011;64614;32.062;34.834;2022-11-09T11:32:37;14.55;;;2.45;;
75935;SDS011;64614;32.062;34.834;2022-11-09T11:35:12;12.57;;;2.10;;
75935;SDS011;64614;32.062;34.834;2022-11-09T11:40:59;12.02;;;2.22;;
75935;SDS011;64614;32.062;34.834;2022-11-09T11:46:16;9.52;;;1.83;;
75935;SDS011;64614;32.062;34.834;2022-11-09T12:00:26;13.00;;;2.20;;
75935;SDS011;64614;32.062;34.834;2022-11-09T12:08:26;10.38;;;2.30;;
75935;SDS011;64614;32.062;34.834;2022-11-09T12:11:49;5.57;;;1.80;;
75935;SDS011;64614;32.062;34.834;2022-11-09T12:19:43;8.70;;;2.08;;
75935;SDS011;64614;32.062;34.834;2022-11-09T12:23:08;10.45;;;2.35;;
75935;SDS011;64614;32.062;34.834;2022-11-09T12:25:37;6.78;;;2.00;;
75935;SDS011;64614;32.062;34.834;2022-11-09T12:31:38;7.03;;;2.20;;
75935;SDS011;64614;32.062;34.834;2022-11-09T12:34:18;8.93;;;2.10;;
75935;SDS011;64614;32.062;34.834;2022-11-09T12:36:57;8.38;;;2.10;;
75935;SDS011;64614;32.062;34.834;2022-11-09T12:42:03;7.20;;;2.50;;
75935;SDS011;64614;32.062;34.834;2022-11-09T12:44:35;5.38;;;2.00;;
75935;SDS011;64614;32.062;34.834;2022-11-09T12:47:21;4.95;;;1.85;;
75935;SDS011;64614;32.062;34.834;2022-11-09T12:49:53;8.07;;;1.90;;
75935;SDS011;64614;32.062;34.834;2022-11-09T12:52:21;6.43;;;1.85;;
75935;SDS011;64614;32.062;34.834;2022-11-09T12:54:51;6.47;;;1.80;;
75935;SDS011;64614;32.062;34.834;2022-11-09T12:57:22;6.75;;;2.15;;
75935;SDS011;64614;32.062;34.834;2022-11-09T12:59:51;6.93;;;1.92;;
75935;SDS011;64614;32.062;34.834;2022-11-09T13:04:58;5.07;;;2.17;;
75935;SDS011;64614;32.062;34.834;2022-11-09T13:07:45;7.75;;;2.10;;
75935;SDS011;64614;32.062;34.834;2022-11-09T13:10:22;6.40;;;2.13;;
75935;SDS011;64614;32.062;34.834;2022-11-09T13:15:33;10.35;;;2.08;;
75935;SDS011;64614;32.062;34.834;2022-11-09T13:18:01;8.52;;;2.10;;
75935;SDS011;64614;32.062;34.834;2022-11-09T13:22:59;9.02;;;2.20;;
75935;SDS011;64614;32.062;34.834;2022-11-09T13:25:50;13.10;;;2.13;;
75935;SDS011;64614;32.062;34.834;2022-11-09T13:30:51;11.77;;;2.42;;
75935;SDS011;64614;32.062;34.834;2022-11-09T13:43:23;6.85;;;2.25;;
75935;SDS011;64614;32.062;34.834;2022-11-09T13:48:41;5.18;;;1.98;;
75935;SDS011;64614;32.062;34.834;2022-11-09T13:56:20;11.23;;;2.50;;
75935;SDS011;64614;32.062;34.834;2022-11-09T13:58:50;11.52;;;2.42;;
75935;SDS011;64614;32.062;34.834;2022-11-09T14:03:57;8.38;;;2.08;;
75935;SDS011;64614;32.062;34.834;2022-11-09T14:06:24;5.68;;;2.08;;
75935;SDS011;64614;32.062;34.834;2022-11-09T14:08:54;6.25;;;2.00;;
75935;SDS011;64614;32.062;34.834;2022-11-09T14:16:55;4.47;;;2.33;;
75935;SDS011;64614;32.062;34.834;2022-11-09T14:22:15;5.78;;;2.20;;
75935;SDS011;64614;32.062;34.834;2022-11-09T14:24:43;5.35;;;2.25;;
75935;SDS011;64614;32.062;34.834;2022-11-09T14:29:47;5.22;;;2.00;;
75935;SDS011;64614;32.062;34.834;2022-11-09T14:32:21;6.35;;;2.45;;
75935;SDS011;64614;32.062;34.834;2022-11-09T14:34:51;6.82;;;2.30;;
75935;SDS011;64614;32.062;34.834;2022-11-09T14:37:17;8.13;;;2.10;;
75935;SDS011;64614;32.062;34.834;2022-11-09T14:39:47;4.53;;;1.80;;
75935;SDS011;64614;32.062;34.834;2022-11-09T14:42:18;5.78;;;2.30;;
75935;SDS011;64614;32.062;34.834;2022-11-09T14:44:47;6.57;;;2.50;;
75935;SDS011;64614;32.062;34.834;2022-11-09T14:47:32;9.90;;;2.42;;
75935;SDS011;64614;32.062;34.834;2022-11-09T14:50:01;4.78;;;2.00;;
75935;SDS011;64614;32.062;34.834;2022-11-09T14:52:28;6.93;;;2.25;;
75935;SDS011;64614;32.062;34.834;2022-11-09T14:54:55;7.90;;;2.65;;
75935;SDS011;64614;32.062;34.834;2022-11-09T14:57:22;6.20;;;2.25;;
75935;SDS011;64614;32.062;34.834;2022-11-09T14:59:48;5.80;;;2.10;;
75935;SDS011;64614;32.062;34.834;2022-11-09T15:02:16;6.22;;;2.63;;
75935;SDS011;64614;32.062;34.834;2022-11-09T15:04:49;9.10;;;2.75;;
75935;SDS011;64614;32.062;34.834;2022-11-09T15:07:29;6.68;;;2.15;;
75935;SDS011;64614;32.062;34.834;2022-11-09T15:10:03;8.10;;;2.40;;
75935;SDS011;64614;32.062;34.834;2022-11-09T15:12:33;5.28;;;2.22;;
75935;SDS011;64614;32.062;34.834;2022-11-09T15:15:01;6.82;;;2.55;;
75935;SDS011;64614;32.062;34.834;2022-11-09T15:17:31;7.90;;;2.55;;
75935;SDS011;64614;32.062;34.834;2022-11-09T15:22:47;6.55;;;2.60;;
75935;SDS011;64614;32.062;34.834;2022-11-09T15:30:44;6.88;;;2.30;;
75935;SDS011;64614;32.062;34.834;2022-11-09T15:35:49;5.43;;;2.10;;
75935;SDS011;64614;32.062;34.834;2022-11-09T15:38:31;4.55;;;2.10;;
75935;SDS011;64614;32.062;34.834;2022-11-09T15:41:08;8.35;;;2.60;;
75935;SDS011;64614;32.062;34.834;2022-11-09T15:43:37;7.07;;;2.22;;
75935;SDS011;64614;32.062;34.834;2022-11-09T15:46:03;6.65;;;2.50;;
75935;SDS011;64614;32.062;34.834;2022-11-09T15:48:29;5.32;;;2.40;;
75935;SDS011;64614;32.062;34.834;2022-11-09T15:50:55;7.80;;;2.53;;
75935;SDS011;64614;32.062;34.834;2022-11-09T15:53:21;7.10;;;2.38;;
75935;SDS011;64614;32.062;34.834;2022-11-09T15:55:47;7.28;;;2.42;;
75935;SDS011;64614;32.062;34.834;2022-11-09T15:58:14;6.28;;;2.40;;
75935;SDS011;64614;32.062;34.834;2022-11-09T16:00:41;7.05;;;2.30;;
75935;SDS011;64614;32.062;34.834;2022-11-09T16:03:07;9.75;;;4.55;;
75935;SDS011;64614;32.062;34.834;2022-11-09T16:05:33;28.10;;;10.60;;
75935;SDS011;64614;32.062;34.834;2022-11-09T16:08:00;76.95;;;27.45;;
75935;SDS011;64614;32.062;34.834;2022-11-09T16:10:26;123.13;;;37.92;;
75935;SDS011;64614;32.062;34.834;2022-11-09T16:12:54;103.80;;;36.90;;
75935;SDS011;64614;32.062;34.834;2022-11-09T16:15:23;104.60;;;33.58;;
75935;SDS011;64614;32.062;34.834;2022-11-09T16:17:50;98.40;;;36.58;;
75935;SDS011;64614;32.062;34.834;2022-11-09T16:20:16;109.15;;;38.67;;
75935;SDS011;64614;32.062;34.834;2022-11-09T16:22:43;75.40;;;25.95;;
75935;SDS011;64614;32.062;34.834;2022-11-09T16:25:24;64.95;;;20.48;;
75935;SDS011;64614;32.062;34.834;2022-11-09T16:27:51;74.90;;;26.55;;
75935;SDS011;64614;32.062;34.834;2022-11-09T16:30:18;62.75;;;21.60;;
75935;SDS011;64614;32.062;34.834;2022-11-09T16:32:46;46.20;;;16.90;;
75935;SDS011;64614;32.062;34.834;2022-11-09T16:46:50;56.40;;;19.42;;
75935;SDS011;64614;32.062;34.834;2022-11-09T16:49:16;42.78;;;17.02;;
75935;SDS011;64614;32.062;34.834;2022-11-09T16:51:41;45.20;;;17.05;;
75935;SDS011;64614;32.062;34.834;2022-11-09T16:54:07;43.08;;;15.68;;
75935;SDS011;64614;32.062;34.834;2022-11-09T16:56:33;37.03;;;14.77;;
75935;SDS011;64614;32.062;34.834;2022-11-09T16:59:00;33.05;;;13.48;;
75935;SDS011;64614;32.062;34.834;2022-11-09T17:01:26;36.63;;;11.93;;
75935;SDS011;64614;32.062;34.834;2022-11-09T17:03:51;21.10;;;8.32;;
75935;SDS011;64614;32.062;34.834;2022-11-09T17:06:17;21.17;;;7.93;;
75935;SDS011;64614;32.062;34.834;2022-11-09T17:08:42;18.38;;;7.57;;
75935;SDS011;64614;32.062;34.834;2022-11-09T17:11:09;17.20;;;6.30;;
75935;SDS011;64614;32.062;34.834;2022-11-09T17:13:36;15.02;;;6.05;;
75935;SDS011;64614;32.062;34.834;2022-11-09T17:16:05;19.58;;;6.72;;
75935;SDS011;64614;32.062;34.834;2022-11-09T17:18:34;19.42;;;6.45;;
75935;SDS011;64614;32.062;34.834;2022-11-09T17:21:13;19.55;;;6.70;;
75935;SDS011;64614;32.062;34.834;2022-11-09T17:23:40;13.38;;;5.10;;
75935;SDS011;64614;32.062;34.834;2022-11-09T17:26:07;16.63;;;5.30;;
75935;SDS011;64614;32.062;34.834;2022-11-09T17:28:51;11.05;;;4.35;;
75935;SDS011;64614;32.062;34.834;2022-11-09T17:31:18;11.18;;;4.38;;
75935;SDS011;64614;32.062;34.834;2022-11-09T17:33:45;12.15;;;4.45;;
75935;SDS011;64614;32.062;34.834;2022-11-09T17:36:11;12.95;;;4.95;;
75935;SDS011;64614;32.062;34.834;2022-11-09T17:38:40;15.05;;;4.90;;
75935;SDS011;64614;32.062;34.834;2022-11-09T17:41:07;12.75;;;4.25;;